Time;durP1;ratioP1;P1;durP2;ratioP2;P2;SDS_P1;SDS_P2;PMS_P1;PMS_P2;Temp;Humidity;BMP_temperature;BMP_pressure;BME280_temperature;BME280_humidity;BME280_pressure;Samples;Min_cycle;Max_cycle;Signal;HPM_P1;HPM_P2
2023/08/25 00:00:09;;;;;;;;;;;;;;;19.06;100.00;100867.53;5025900;28;19913;-61
2023/08/25 00:02:35;;;;;;;;;;;;;;;19.06;100.00;100859.63;5025707;28;19901;-61
2023/08/25 00:05:00;;;;;;;;;;;;;;;19.10;100.00;100872.81;5015877;28;19917;-61
2023/08/25 00:07:25;;;;;;;;;;;;;;;19.07;100.00;100877.22;5025582;28;20143;-61
2023/08/25 00:09:51;;;;;;;;;;;;;;;18.99;100.00;100874.69;5021991;28;20140;-61
2023/08/25 00:12:16;;;;;;;;;;;;;;;18.95;100.00;100883.53;5028603;28;19912;-60
2023/08/25 00:14:41;;;;;;;;;;;;;;;18.97;100.00;100878.22;5018850;28;19912;-61
2023/08/25 00:17:08;;;;;;;;;;;;;;;18.98;100.00;100878.19;5021750;28;19905;-61
2023/08/25 00:19:33;;;;;;;;;;;;;;;18.98;100.00;100874.69;5023703;28;19936;-60
2023/08/25 00:21:58;;;;;;;;;;;;;;;18.97;100.00;100878.22;5026621;28;20075;-60
2023/08/25 00:24:23;;;;;;;;;;;;;;;18.97;100.00;100878.22;5024642;28;20182;-60
2023/08/25 00:26:48;;;;;;;;;;;;;;;18.96;100.00;100879.09;5018097;28;19992;-60
2023/08/25 00:29:14;;;;;;;;;;;;;;;18.96;100.00;100885.28;5025792;28;19913;-61
2023/08/25 00:31:39;;;;;;;;;;;;;;;18.93;100.00;100885.31;5022374;28;20091;-60
2023/08/25 00:34:04;;;;;;;;;;;;;;;18.92;100.00;100884.41;5020879;28;20090;-60
2023/08/25 00:36:30;;;;;;;;;;;;;;;18.91;100.00;100887.06;5018262;28;20187;-60
2023/08/25 00:38:55;;;;;;;;;;;;;;;18.85;100.00;100893.25;5024552;28;20979;-60
2023/08/25 00:41:20;;;;;;;;;;;;;;;18.84;100.00;100888.00;5025844;28;20089;-60
2023/08/25 00:43:46;;;;;;;;;;;;;;;18.81;100.00;100886.25;5019134;28;19906;-61
2023/08/25 00:46:11;;;;;;;;;;;;;;;18.79;100.00;100880.13;5016200;28;19917;-60
2023/08/25 00:48:38;;;;;;;;;;;;;;;18.80;100.00;100878.34;5029084;28;20040;-60
2023/08/25 00:51:04;;;;;;;;;;;;;;;18.79;100.00;100879.25;5022557;28;19913;-60
2023/08/25 00:53:33;;;;;;;;;;;;;;;18.78;100.00;100886.28;5018239;28;19917;-61
2023/08/25 00:55:58;;;;;;;;;;;;;;;18.79;100.00;100877.50;5024975;28;19941;-60
2023/08/25 00:58:24;;;;;;;;;;;;;;;18.82;100.00;100879.22;5031688;28;19901;-60
2023/08/25 01:00:49;;;;;;;;;;;;;;;18.78;100.00;100875.72;5018755;28;19912;-61
2023/08/25 01:03:14;;;;;;;;;;;;;;;18.73;100.00;100873.13;5019692;28;20193;-61
2023/08/25 01:05:40;;;;;;;;;;;;;;;18.68;100.00;100880.22;5019663;28;19922;-60
2023/08/25 01:08:05;;;;;;;;;;;;;;;18.64;100.00;100877.63;5021124;28;19937;-60
2023/08/25 01:10:57;;;;;;;;;;;;;;;18.64;100.00;100878.53;5014925;28;19960;-60
2023/08/25 01:13:35;;;;;;;;;;;;;;;18.68;100.00;100874.06;5015827;28;20111;-60
2023/08/25 01:16:02;;;;;;;;;;;;;;;18.70;100.00;100874.94;5022217;28;20155;-60
2023/08/25 01:18:28;;;;;;;;;;;;;;;18.70;100.00;100873.19;5025800;28;20215;-60
2023/08/25 01:20:55;;;;;;;;;;;;;;;18.66;100.00;100874.09;5024968;28;19928;-60
2023/08/25 01:23:44;;;;;;;;;;;;;;;18.58;100.00;100863.63;5024892;28;20144;-60
2023/08/25 01:26:10;;;;;;;;;;;;;;;18.53;100.00;100861.91;5025254;28;19922;-61
2023/08/25 01:28:38;;;;;;;;;;;;;;;18.50;100.00;100864.56;5024591;28;19912;-60
2023/08/25 01:31:04;;;;;;;;;;;;;;;18.47;100.00;100861.97;5017669;28;19906;-60
2023/08/25 01:33:32;;;;;;;;;;;;;;;18.46;100.00;100861.06;5017724;28;19910;-60
2023/08/25 01:36:13;;;;;;;;;;;;;;;18.47;100.00;100857.56;5023257;28;19940;-60
2023/08/25 01:38:43;;;;;;;;;;;;;;;18.50;100.00;100854.03;5021301;28;19928;-60
2023/08/25 01:41:14;;;;;;;;;;;;;;;18.53;100.00;100859.25;5014585;28;19928;-60
2023/08/25 01:43:43;;;;;;;;;;;;;;;18.56;100.00;100857.47;5024853;28;19906;-60
2023/08/25 01:46:09;;;;;;;;;;;;;;;18.57;100.00;100851.31;5023404;28;19910;-60
2023/08/25 01:48:35;;;;;;;;;;;;;;;18.60;100.00;100853.91;5025326;28;19913;-60
2023/08/25 01:51:00;;;;;;;;;;;;;;;18.58;100.00;100855.69;5019532;28;19918;-60
2023/08/25 01:53:27;;;;;;;;;;;;;;;18.57;100.00;100859.22;5021519;28;19906;-60
2023/08/25 01:55:52;;;;;;;;;;;;;;;18.57;100.00;100850.44;5025620;28;20152;-60
2023/08/25 01:58:17;;;;;;;;;;;;;;;18.58;100.00;100846.88;5019409;28;19944;-60
2023/08/25 02:00:42;;;;;;;;;;;;;;;18.62;100.00;100845.09;5015603;28;19972;-60
2023/08/25 02:03:07;;;;;;;;;;;;;;;18.65;100.00;100842.44;5016894;28;20241;-60
2023/08/25 02:05:33;;;;;;;;;;;;;;;18.66;100.00;100845.06;5023758;28;20182;-60
2023/08/25 02:07:58;;;;;;;;;;;;;;;18.69;100.00;100838.88;5024269;28;19905;-60
2023/08/25 02:10:23;;;;;;;;;;;;;;;18.72;100.00;100838.84;5021047;28;19917;-61
2023/08/25 02:12:48;;;;;;;;;;;;;;;18.73;100.00;100841.47;5024982;28;20107;-61
2023/08/25 02:15:13;;;;;;;;;;;;;;;18.73;100.00;100838.81;5024849;28;20154;-60
2023/08/25 02:17:40;;;;;;;;;;;;;;;18.71;100.00;100837.09;5024177;28;20135;-60
2023/08/25 02:20:05;;;;;;;;;;;;;;;18.68;100.00;100832.72;5016061;28;19920;-60
2023/08/25 02:22:31;;;;;;;;;;;;;;;18.64;100.00;100825.72;5021074;28;19909;-60
2023/08/25 02:24:56;;;;;;;;;;;;;;;18.57;100.00;100826.69;5029954;28;19940;-61
2023/08/25 02:27:22;;;;;;;;;;;;;;;18.52;100.00;100831.13;5029807;28;19902;-60
2023/08/25 02:29:47;;;;;;;;;;;;;;;18.45;100.00;100829.44;5033115;28;20238;-60
2023/08/25 02:32:12;;;;;;;;;;;;;;;18.38;100.00;100823.34;5020474;28;19909;-60
2023/08/25 02:34:37;;;;;;;;;;;;;;;18.36;100.00;100828.59;5021130;28;19905;-60
2023/08/25 02:37:02;;;;;;;;;;;;;;;18.37;100.00;100811.03;5019973;28;19964;-60
2023/08/25 02:39:28;;;;;;;;;;;;;;;18.38;100.00;100807.53;5019810;28;19988;-61
2023/08/25 02:41:53;;;;;;;;;;;;;;;18.40;100.00;100805.72;5024838;28;19909;-60
2023/08/25 02:44:18;;;;;;;;;;;;;;;18.44;100.00;100799.53;5016784;28;19902;-60
2023/08/25 02:46:43;;;;;;;;;;;;;;;18.47;100.00;100796.00;5016673;28;20144;-60
2023/08/25 02:49:09;;;;;;;;;;;;;;;18.51;100.00;100798.59;5019337;28;19906;-60
2023/08/25 02:51:34;;;;;;;;;;;;;;;18.50;100.00;100798.59;5013545;28;20071;-60
2023/08/25 02:53:59;;;;;;;;;;;;;;;18.48;100.00;100796.00;5016297;28;19905;-60
2023/08/25 02:56:24;;;;;;;;;;;;;;;18.47;100.00;100788.09;5035216;28;19908;-60
2023/08/25 02:58:49;;;;;;;;;;;;;;;18.47;100.00;100793.38;5024748;28;19952;-60
2023/08/25 03:01:14;;;;;;;;;;;;;;;18.48;100.00;100782.78;5019678;28;19909;-60
2023/08/25 03:03:40;;;;;;;;;;;;;;;18.50;100.00;100791.56;5035312;28;19905;-60
2023/08/25 03:06:05;;;;;;;;;;;;;;;18.52;100.00;100784.47;5019794;28;19937;-60
2023/08/25 03:08:30;;;;;;;;;;;;;;;18.54;100.00;100780.09;5020264;28;20005;-60
2023/08/25 03:10:56;;;;;;;;;;;;;;;18.58;100.00;100776.53;5017017;28;20098;-59
2023/08/25 03:13:21;;;;;;;;;;;;;;;18.61;100.00;100770.34;5023900;28;20028;-60
2023/08/25 03:15:48;;;;;;;;;;;;;;;18.63;100.00;100771.19;5015651;28;19909;-60
2023/08/25 03:18:16;;;;;;;;;;;;;;;18.63;100.00;100773.84;5024713;28;19901;-60
2023/08/25 03:20:41;;;;;;;;;;;;;;;18.65;100.00;100769.41;5028826;28;19917;-60
2023/08/25 03:23:06;;;;;;;;;;;;;;;18.68;100.00;100768.50;5023336;28;19909;-60
2023/08/25 03:25:31;;;;;;;;;;;;;;;18.69;100.00;100762.34;5025691;28;19955;-60
2023/08/25 03:27:57;;;;;;;;;;;;;;;18.67;100.00;100759.72;5023447;28;19957;-60
2023/08/25 03:30:22;;;;;;;;;;;;;;;18.66;100.00;100749.19;5035196;28;20009;-60
2023/08/25 03:32:47;;;;;;;;;;;;;;;18.64;100.00;100754.47;5024902;28;19912;-60
2023/08/25 03:35:13;;;;;;;;;;;;;;;18.65;100.00;100750.94;5019924;28;19912;-60
2023/08/25 03:37:38;;;;;;;;;;;;;;;18.68;100.00;100752.66;5027587;28;19948;-60
2023/08/25 03:40:04;;;;;;;;;;;;;;;18.71;100.00;100742.06;5024633;28;19902;-60
2023/08/25 03:42:29;;;;;;;;;;;;;;;18.74;100.00;100744.66;5030331;28;19938;-60
2023/08/25 03:44:54;;;;;;;;;;;;;;;18.76;100.00;100741.13;5026614;28;19913;-60
2023/08/25 03:47:19;;;;;;;;;;;;;;;18.78;100.00;100738.47;5025227;28;20122;-60
2023/08/25 03:49:44;;;;;;;;;;;;;;;18.81;100.00;100737.56;5024311;28;19912;-60
2023/08/25 03:52:10;;;;;;;;;;;;;;;18.81;100.00;100737.56;5024583;28;19901;-60
2023/08/25 03:54:35;;;;;;;;;;;;;;;18.79;100.00;100737.56;5030279;28;19936;-60
2023/08/25 03:57:01;;;;;;;;;;;;;;;18.81;100.00;100742.84;5026934;28;19905;-60
2023/08/25 03:59:26;;;;;;;;;;;;;;;18.82;100.00;100740.19;5025547;28;20128;-61
2023/08/25 04:01:52;;;;;;;;;;;;;;;18.81;100.00;100734.91;5016097;28;19913;-60
2023/08/25 04:04:17;;;;;;;;;;;;;;;18.81;100.00;100743.69;5020484;28;20066;-60
2023/08/25 04:06:42;;;;;;;;;;;;;;;18.82;100.00;100740.19;5026994;28;19980;-60
2023/08/25 04:09:07;;;;;;;;;;;;;;;18.84;100.00;100729.59;5022415;28;20986;-60
2023/08/25 04:11:32;;;;;;;;;;;;;;;18.86;100.00;100733.09;5015789;28;19912;-60
2023/08/25 04:13:58;;;;;;;;;;;;;;;18.85;100.00;100729.56;5017307;28;19928;-60
2023/08/25 04:16:23;;;;;;;;;;;;;;;18.88;100.00;100733.97;5029055;28;20067;-60
2023/08/25 04:18:48;;;;;;;;;;;;;;;18.90;100.00;100741.00;5020961;28;19909;-61
2023/08/25 04:21:14;;;;;;;;;;;;;;;18.90;100.00;100719.88;5023556;28;19905;-60
2023/08/25 04:23:39;;;;;;;;;;;;;;;18.92;100.00;100726.00;5027121;28;20063;-60
2023/08/25 04:26:04;;;;;;;;;;;;;;;18.92;100.00;100720.72;5027103;28;19931;-60
2023/08/25 04:28:30;;;;;;;;;;;;;;;18.92;100.00;100718.06;5024947;28;19909;-60
2023/08/25 04:30:55;;;;;;;;;;;;;;;18.90;100.00;100717.22;5022819;28;19944;-60
2023/08/25 04:33:21;;;;;;;;;;;;;;;18.87;100.00;100719.91;5019370;28;19913;-60
2023/08/25 04:35:46;;;;;;;;;;;;;;;18.86;100.00;100728.72;5018765;28;19905;-60
2023/08/25 04:38:11;;;;;;;;;;;;;;;18.85;100.00;100732.22;5022953;28;20066;-60
2023/08/25 04:40:36;;;;;;;;;;;;;;;18.85;100.00;100734.00;5024339;28;19913;-60
2023/08/25 04:43:01;;;;;;;;;;;;;;;18.87;100.00;100737.50;5023033;28;19913;-60
2023/08/25 04:45:27;;;;;;;;;;;;;;;18.86;100.00;100736.66;5025883;28;19914;-60
2023/08/25 04:47:52;;;;;;;;;;;;;;;18.84;100.00;100738.41;5022394;28;19912;-60
2023/08/25 04:50:18;;;;;;;;;;;;;;;18.82;100.00;100734.91;5023486;28;20109;-60
2023/08/25 04:52:43;;;;;;;;;;;;;;;18.80;100.00;100726.13;5022318;28;19913;-60
2023/08/25 04:55:10;;;;;;;;;;;;;;;18.80;100.00;100719.97;5025518;28;19977;-60
2023/08/25 04:57:35;;;;;;;;;;;;;;;18.82;100.00;100721.69;5038668;28;20122;-60
2023/08/25 05:00:05;;;;;;;;;;;;;;;18.81;100.00;100719.06;5022797;28;19925;-60
2023/08/25 05:02:30;;;;;;;;;;;;;;;18.80;100.00;100710.28;5017853;28;19902;-60
2023/08/25 05:04:55;;;;;;;;;;;;;;;18.77;100.00;100710.34;5014956;28;20171;-60
2023/08/25 05:07:20;;;;;;;;;;;;;;;18.75;100.00;100712.09;5021680;28;20229;-60
2023/08/25 05:09:45;;;;;;;;;;;;;;;18.74;100.00;100711.25;5017606;28;19936;-60
2023/08/25 05:12:11;;;;;;;;;;;;;;;18.73;100.00;100701.56;5018510;28;20066;-60
2023/08/25 05:14:36;;;;;;;;;;;;;;;18.74;100.00;100694.50;5021460;28;20023;-60
2023/08/25 05:17:01;;;;;;;;;;;;;;;18.75;100.00;100705.03;5020829;28;20158;-60
2023/08/25 05:19:27;;;;;;;;;;;;;;;18.75;100.00;100712.09;5013586;28;19906;-60
2023/08/25 05:21:52;;;;;;;;;;;;;;;18.76;100.00;100701.53;5015343;28;19979;-60
2023/08/25 05:24:18;;;;;;;;;;;;;;;18.75;100.00;100701.53;5015282;28;19914;-60
2023/08/25 05:26:43;;;;;;;;;;;;;;;18.74;100.00;100711.25;5012767;28;20195;-61
2023/08/25 05:29:09;;;;;;;;;;;;;;;18.75;100.00;100714.75;5016868;28;20166;-60
2023/08/25 05:31:34;;;;;;;;;;;;;;;18.74;100.00;100711.25;5022049;28;19943;-60
2023/08/25 05:33:59;;;;;;;;;;;;;;;18.72;100.00;100715.66;5022939;28;19912;-60
2023/08/25 05:36:25;;;;;;;;;;;;;;;18.75;100.00;100726.16;5018103;28;19906;-60
2023/08/25 05:38:50;;;;;;;;;;;;;;;18.80;100.00;100714.69;5025376;28;19909;-60
2023/08/25 05:41:15;;;;;;;;;;;;;;;18.82;100.00;100703.22;5023708;28;20150;-60
2023/08/25 05:43:40;;;;;;;;;;;;;;;18.84;100.00;100705.84;5019218;28;19917;-60
2023/08/25 05:46:06;;;;;;;;;;;;;;;18.85;100.00;100697.03;5011337;28;19914;-60
2023/08/25 05:48:31;;;;;;;;;;;;;;;18.88;100.00;100699.66;5023155;28;19969;-60
2023/08/25 05:50:57;;;;;;;;;;;;;;;18.89;100.00;100704.91;5029122;28;19902;-61
2023/08/25 05:53:22;;;;;;;;;;;;;;;18.89;100.00;100693.50;5032678;28;19990;-61
2023/08/25 05:55:47;;;;;;;;;;;;;;;18.89;100.00;100678.50;5017490;28;19909;-60
2023/08/25 05:58:12;;;;;;;;;;;;;;;18.91;100.00;100676.72;5022771;28;19927;-60
2023/08/25 06:00:37;;;;;;;;;;;;;;;18.93;100.00;100685.50;5019379;28;19987;-60
2023/08/25 06:03:04;;;;;;;;;;;;;;;18.98;100.00;100697.78;5012749;28;20119;-60
2023/08/25 06:05:29;;;;;;;;;;;;;;;18.97;100.00;100683.69;5019070;28;19913;-60
2023/08/25 06:07:54;;;;;;;;;;;;;;;18.98;100.00;100671.38;5014329;28;19924;-61
2023/08/25 06:10:19;;;;;;;;;;;;;;;18.94;100.00;100676.69;5022963;28;20091;-60
2023/08/25 06:12:45;;;;;;;;;;;;;;;18.92;100.00;100670.56;5024884;28;19948;-60
2023/08/25 06:15:10;;;;;;;;;;;;;;;18.91;100.00;100676.72;5026488;28;19913;-60
2023/08/25 06:17:35;;;;;;;;;;;;;;;18.93;100.00;100680.22;5023822;28;19906;-60
2023/08/25 06:20:03;;;;;;;;;;;;;;;18.93;100.00;100674.94;5007178;28;20098;-60
2023/08/25 06:22:28;;;;;;;;;;;;;;;18.92;100.00;100693.44;5020493;28;19915;-60
2023/08/25 06:24:53;;;;;;;;;;;;;;;18.92;100.00;100707.50;5024264;28;19905;-61
2023/08/25 06:27:18;;;;;;;;;;;;;;;18.93;100.00;100693.44;5027958;28;19989;-60
2023/08/25 06:29:45;;;;;;;;;;;;;;;18.90;100.00;100711.06;5028450;28;21282;-60
2023/08/25 06:32:13;;;;;;;;;;;;;;;18.88;100.00;100715.50;5023694;28;19905;-60
2023/08/25 06:34:38;;;;;;;;;;;;;;;18.85;100.00;100697.91;5022380;28;19902;-60
2023/08/25 06:37:03;;;;;;;;;;;;;;;18.86;100.00;100702.31;5023163;28;19905;-61
2023/08/25 06:39:28;;;;;;;;;;;;;;;18.88;100.00;100694.38;5016652;28;19905;-60
2023/08/25 06:41:53;;;;;;;;;;;;;;;18.91;100.00;100699.63;5023702;28;19933;-60
2023/08/25 06:44:19;;;;;;;;;;;;;;;18.90;100.00;100680.28;5017624;28;20139;-60
2023/08/25 06:46:44;;;;;;;;;;;;;;;18.92;100.00;100685.53;5034416;28;20147;-60
2023/08/25 06:49:11;;;;;;;;;;;;;;;18.93;100.00;100692.56;5024363;28;19927;-61
2023/08/25 06:51:36;;;;;;;;;;;;;;;18.90;100.00;100690.84;5024669;28;20159;-62
2023/08/25 06:54:01;;;;;;;;;;;;;;;18.89;100.00;100681.16;5027842;28;19905;-62
2023/08/25 06:56:26;;;;;;;;;;;;;;;18.90;100.00;100682.91;5022556;28;19905;-62
2023/08/25 06:58:52;;;;;;;;;;;;;;;18.84;100.00;100675.06;5024017;28;19906;-62
2023/08/25 07:01:18;;;;;;;;;;;;;;;18.79;100.00;100653.09;5025000;28;19908;-62
2023/08/25 07:03:43;;;;;;;;;;;;;;;18.74;100.00;100617.97;5023353;28;19987;-62
2023/08/25 07:06:08;;;;;;;;;;;;;;;18.72;100.00;100610.06;5025946;28;19909;-62
2023/08/25 07:08:33;;;;;;;;;;;;;;;18.72;100.00;100622.41;5024626;28;19928;-62
2023/08/25 07:10:59;;;;;;;;;;;;;;;18.68;100.00;100647.94;5017693;28;19917;-62
2023/08/25 07:13:24;;;;;;;;;;;;;;;18.66;100.00;100646.25;5017072;28;19906;-62
2023/08/25 07:15:51;;;;;;;;;;;;;;;18.66;100.00;100638.34;5011255;28;19918;-62
2023/08/25 07:18:16;;;;;;;;;;;;;;;18.66;100.00;100625.13;5018084;28;19905;-62
2023/08/25 07:20:41;;;;;;;;;;;;;;;18.65;100.00;100629.53;5014645;28;20213;-63
2023/08/25 07:23:06;;;;;;;;;;;;;;;18.64;100.00;100643.63;5025961;28;19910;-63
2023/08/25 07:25:31;;;;;;;;;;;;;;;18.65;100.00;100684.94;5020742;28;19910;-63
2023/08/25 07:27:57;;;;;;;;;;;;;;;18.66;100.00;100738.63;5021916;28;19909;-62
2023/08/25 07:30:22;;;;;;;;;;;;;;;18.63;100.00;100783.53;5018989;28;19959;-64
2023/08/25 07:32:50;;;;;;;;;;;;;;;18.59;100.00;100759.78;5022160;28;19913;-64
2023/08/25 07:35:15;;;;;;;;;;;;;;;18.47;100.00;100696.59;5025950;28;19905;-64
2023/08/25 07:37:41;;;;;;;;;;;;;;;18.41;100.00;100679.09;5022121;28;20174;-65
2023/08/25 07:40:07;;;;;;;;;;;;;;;18.40;100.00;100689.66;5021295;28;19910;-65
2023/08/25 07:42:32;;;;;;;;;;;;;;;18.40;100.00;100684.38;5014119;28;20143;-65
2023/08/25 07:44:57;;;;;;;;;;;;;;;18.41;100.00;100712.50;5017540;28;20150;-64
2023/08/25 07:47:22;;;;;;;;;;;;;;;18.40;100.00;100723.94;5024398;28;20108;-64
2023/08/25 07:49:48;;;;;;;;;;;;;;;18.41;100.00;100716.00;5024038;28;19940;-64
2023/08/25 07:52:13;;;;;;;;;;;;;;;18.39;100.00;100720.44;5024344;28;20067;-64
2023/08/25 07:54:38;;;;;;;;;;;;;;;18.38;100.00;100713.41;5025477;28;19909;-65
2023/08/25 07:57:03;;;;;;;;;;;;;;;18.40;100.00;100705.47;5029259;28;19956;-65
2023/08/25 07:59:28;;;;;;;;;;;;;;;18.41;100.00;100708.09;5030949;28;19912;-65
2023/08/25 08:01:54;;;;;;;;;;;;;;;18.42;100.00;100715.13;5028608;28;19912;-65
2023/08/25 08:04:19;;;;;;;;;;;;;;;18.44;100.00;100717.75;5033819;28;19901;-65
2023/08/25 08:06:44;;;;;;;;;;;;;;;18.46;100.00;100726.50;5033271;28;20182;-65
2023/08/25 08:09:10;;;;;;;;;;;;;;;18.48;100.00;100722.09;5036184;28;20131;-65
2023/08/25 08:11:35;;;;;;;;;;;;;;;18.54;100.00;100729.09;5032048;28;19916;-65
2023/08/25 08:14:00;;;;;;;;;;;;;;;18.55;100.00;100734.34;5030634;28;19905;-65
2023/08/25 08:16:26;;;;;;;;;;;;;;;18.56;100.00;100725.50;5023850;28;19933;-65
2023/08/25 08:18:51;;;;;;;;;;;;;;;18.53;100.00;100722.91;5025467;28;19921;-65
2023/08/25 08:21:17;;;;;;;;;;;;;;;18.54;100.00;100722.03;5026569;28;19905;-65
2023/08/25 08:23:42;;;;;;;;;;;;;;;18.55;100.00;100701.78;5027370;28;20044;-65
2023/08/25 08:26:08;;;;;;;;;;;;;;;18.55;100.00;100694.75;5024826;28;19910;-65
2023/08/25 08:28:34;;;;;;;;;;;;;;;18.55;100.00;100694.75;5025435;28;19937;-65
2023/08/25 08:31:03;;;;;;;;;;;;;;;18.53;100.00;100700.94;5023176;28;19986;-65
2023/08/25 08:33:29;;;;;;;;;;;;;;;18.53;100.00;100707.09;5023833;28;19915;-65
2023/08/25 08:35:54;;;;;;;;;;;;;;;18.53;100.00;100690.38;5020632;28;19972;-65
2023/08/25 08:38:19;;;;;;;;;;;;;;;18.54;100.00;100695.66;5021366;28;19912;-65
2023/08/25 08:40:44;;;;;;;;;;;;;;;18.56;100.00;100714.97;5024418;28;20214;-65
2023/08/25 08:43:14;;;;;;;;;;;;;;;18.54;100.00;100729.94;5026945;28;19901;-65
2023/08/25 08:45:42;;;;;;;;;;;;;;;18.53;100.00;100727.31;5025823;28;19910;-65
2023/08/25 08:48:07;;;;;;;;;;;;;;;18.48;100.00;100729.13;5026864;28;19902;-65
2023/08/25 08:50:33;;;;;;;;;;;;;;;18.49;100.00;100721.19;5014719;28;20057;-65
2023/08/25 08:52:59;;;;;;;;;;;;;;;18.49;100.00;100712.41;5024968;28;19908;-64
2023/08/25 08:55:26;;;;;;;;;;;;;;;18.52;100.00;100730.84;5025276;28;19951;-64
2023/08/25 08:57:51;;;;;;;;;;;;;;;18.59;100.00;100736.03;5023902;28;19917;-64
2023/08/25 09:00:18;;;;;;;;;;;;;;;18.66;100.00;100735.97;5024986;28;20173;-64
2023/08/25 09:02:45;;;;;;;;;;;;;;;18.71;100.00;100732.41;5026557;28;19909;-64
2023/08/25 09:05:12;;;;;;;;;;;;;;;18.75;100.00;100738.50;5026670;28;19912;-64
2023/08/25 09:07:38;;;;;;;;;;;;;;;18.78;100.00;100719.97;5024829;28;19906;-64
2023/08/25 09:10:03;;;;;;;;;;;;;;;18.73;100.00;100704.22;5027206;28;19905;-64
2023/08/25 09:12:32;;;;;;;;;;;;;;;18.70;100.00;100695.47;5025103;28;19906;-64
2023/08/25 09:14:57;;;;;;;;;;;;;;;18.67;100.00;100725.41;5025452;28;19901;-64
2023/08/25 09:17:22;;;;;;;;;;;;;;;18.62;100.00;100747.47;5026061;28;20050;-64
2023/08/25 09:19:47;;;;;;;;;;;;;;;18.56;100.00;100733.44;5026079;28;19905;-64
2023/08/25 09:22:15;;;;;;;;;;;;;;;18.57;100.00;100702.66;5025292;28;19909;-64
2023/08/25 09:24:44;;;;;;;;;;;;;;;18.55;100.00;100692.13;5025837;28;20167;-64
2023/08/25 09:27:25;;;;;;;;;;;;;;;18.57;100.00;100685.06;5026013;28;19906;-64
2023/08/25 09:29:57;;;;;;;;;;;;;;;18.63;100.00;100696.44;5026278;28;19999;-64
2023/08/25 09:32:23;;;;;;;;;;;;;;;18.69;100.00;100699.00;5032225;28;20099;-64
2023/08/25 09:34:49;;;;;;;;;;;;;;;18.71;100.00;100723.59;5027131;28;19911;-64
2023/08/25 09:37:14;;;;;;;;;;;;;;;18.67;100.00;100729.78;5025973;28;20114;-63
2023/08/25 09:39:45;;;;;;;;;;;;;;;18.67;100.00;100724.50;5025937;28;19905;-63
2023/08/25 09:42:10;;;;;;;;;;;;;;;18.69;100.00;100709.56;5024751;28;20128;-63
2023/08/25 09:44:36;;;;;;;;;;;;;;;18.71;100.00;100718.31;5025787;28;19901;-63
2023/08/25 09:47:01;;;;;;;;;;;;;;;18.71;100.00;100708.66;5024899;28;20155;-63
2023/08/25 09:49:36;;;;;;;;;;;;;;;18.73;100.00;100708.63;5025151;28;19905;-63
2023/08/25 09:52:02;;;;;;;;;;;;;;;18.76;100.00;100712.09;5025900;28;19940;-63
2023/08/25 09:54:27;;;;;;;;;;;;;;;18.85;100.00;100718.16;5024405;28;20104;-63
2023/08/25 09:56:53;;;;;;;;;;;;;;;18.94;100.00;100713.66;5025226;28;19905;-63
2023/08/25 09:59:18;;;;;;;;;;;;;;;19.04;100.00;100710.88;5024460;28;19905;-63
2023/08/25 10:01:45;;;;;;;;;;;;;;;19.07;100.00;100709.09;5025803;28;19901;-63
2023/08/25 10:04:10;;;;;;;;;;;;;;;19.15;100.00;100708.97;5025499;28;20047;-63
2023/08/25 10:06:37;;;;;;;;;;;;;;;19.22;100.00;100712.38;5023841;28;20144;-63
2023/08/25 10:09:03;;;;;;;;;;;;;;;19.29;100.00;100719.31;5024925;28;19932;-63
2023/08/25 10:11:34;;;;;;;;;;;;;;;19.35;100.00;100708.69;5025013;28;19912;-63
2023/08/25 10:14:02;;;;;;;;;;;;;;;19.42;100.00;100714.75;5024889;28;20051;-63
2023/08/25 10:16:27;;;;;;;;;;;;;;;19.50;100.00;100712.88;5024100;28;19902;-63
2023/08/25 10:18:54;;;;;;;;;;;;;;;19.53;100.00;100717.22;5025143;28;19945;-64
2023/08/25 10:21:20;;;;;;;;;;;;;;;19.57;100.00;100724.22;5025321;28;19902;-63
2023/08/25 10:23:48;;;;;;;;;;;;;;;19.59;100.00;100728.56;5024904;28;19909;-63
2023/08/25 10:26:14;;;;;;;;;;;;;;;19.66;100.00;100713.50;5023903;28;20063;-64
2023/08/25 10:28:40;;;;;;;;;;;;;;;19.71;100.00;100710.78;5038679;28;19964;-64
2023/08/25 10:31:06;;;;;;;;;;;;;;;19.80;100.00;100721.25;5025081;28;19905;-64
2023/08/25 10:33:51;;;;;;;;;;;;;;;19.90;100.00;100717.53;5020434;28;20272;-64
2023/08/25 10:36:17;;;;;;;;;;;;;;;19.92;100.00;100726.31;5024928;28;19906;-64
2023/08/25 10:38:44;;;;;;;;;;;;;;;19.95;100.00;100720.97;5023483;28;19964;-64
2023/08/25 10:41:11;;;;;;;;;;;;;;;20.01;100.00;100724.41;5019367;28;19905;-64
2023/08/25 10:43:37;;;;;;;;;;;;;;;19.98;100.00;100726.19;5022258;28;20051;-64
2023/08/25 10:46:09;;;;;;;;;;;;;;;19.97;100.00;100726.22;5024260;28;19914;-64
2023/08/25 10:48:34;;;;;;;;;;;;;;;19.96;100.00;100737.72;5015817;28;19906;-64
2023/08/25 10:51:10;;;;;;;;;;;;;;;19.90;100.00;100736.06;5032498;28;19905;-64
2023/08/25 10:53:38;;;;;;;;;;;;;;;19.90;100.00;100732.50;5026546;28;19905;-64
2023/08/25 10:56:18;;;;;;;;;;;;;;;19.88;100.00;100732.53;5024524;28;20036;-64
2023/08/25 10:58:56;;;;;;;;;;;;;;;19.84;100.00;100724.69;5012735;28;20051;-64
2023/08/25 11:01:23;;;;;;;;;;;;;;;19.77;100.00;100710.69;5016613;28;19955;-65
2023/08/25 11:04:07;;;;;;;;;;;;;;;19.76;100.00;100717.72;5014851;28;19924;-65
2023/08/25 11:06:36;;;;;;;;;;;;;;;19.76;100.00;100730.09;5014117;28;20067;-65
2023/08/25 11:09:01;;;;;;;;;;;;;;;19.74;100.00;100716.00;5021047;28;20075;-65
2023/08/25 11:11:27;;;;;;;;;;;;;;;19.70;100.00;100714.34;5022420;28;19906;-65
2023/08/25 11:13:56;;;;;;;;;;;;;;;19.69;100.00;100713.44;5023349;28;19945;-65
2023/08/25 11:16:21;;;;;;;;;;;;;;;19.68;100.00;100708.19;5024465;28;19901;-65
2023/08/25 11:18:46;;;;;;;;;;;;;;;19.70;100.00;100701.13;5025209;28;19905;-65
2023/08/25 11:21:11;;;;;;;;;;;;;;;19.73;100.00;100709.00;5009302;28;19905;-65
2023/08/25 11:23:40;;;;;;;;;;;;;;;19.75;100.00;100704.53;5017108;28;19910;-65
2023/08/25 11:26:06;;;;;;;;;;;;;;;19.80;100.00;100716.81;5021389;28;19909;-65
2023/08/25 11:28:32;;;;;;;;;;;;;;;19.85;100.00;100719.38;5021437;28;19941;-65
2023/08/25 11:30:58;;;;;;;;;;;;;;;19.91;100.00;100719.25;5021863;28;19924;-65
2023/08/25 11:33:25;;;;;;;;;;;;;;;19.94;100.00;100716.59;5022175;28;20230;-65
2023/08/25 11:35:50;;;;;;;;;;;;;;;19.95;100.00;100725.38;5017574;28;19905;-65
2023/08/25 11:38:16;;;;;;;;;;;;;;;19.93;100.00;100721.91;5019116;28;19905;-65
2023/08/25 11:40:41;;;;;;;;;;;;;;;19.89;100.00;100726.38;5027965;28;19908;-66
2023/08/25 11:43:06;;;;;;;;;;;;;;;19.87;100.00;100730.81;5025153;28;19909;-66
2023/08/25 11:45:32;;;;;;;;;;;;;;;19.89;100.00;100736.09;5029720;28;20040;-66
2023/08/25 11:47:57;;;;;;;;;;;;;;;19.89;100.00;100742.22;5027660;28;20031;-66
2023/08/25 11:50:22;;;;;;;;;;;;;;;19.91;100.00;100735.13;5021217;28;19952;-66
2023/08/25 11:52:48;;;;;;;;;;;;;;;19.92;100.00;100747.47;5018778;28;19906;-66
2023/08/25 11:55:13;;;;;;;;;;;;;;;19.91;100.00;100743.06;5025030;28;19898;-67
2023/08/25 11:57:39;;;;;;;;;;;;;;;19.92;100.00;100736.88;5021572;28;20145;-66
2023/08/25 12:00:05;;;;;;;;;;;;;;;19.94;100.00;100737.75;5017008;28;19918;-66
2023/08/25 12:02:31;;;;;;;;;;;;;;;19.95;100.00;100728.03;5027507;28;19904;-66
2023/08/25 12:04:56;;;;;;;;;;;;;;;19.96;100.00;100714.78;5021779;28;20005;-66
2023/08/25 12:07:22;;;;;;;;;;;;;;;20.00;100.00;100706.78;5025819;28;19902;-66
2023/08/25 12:09:52;;;;;;;;;;;;;;;20.03;100.00;100706.72;5016604;28;19916;-66
2023/08/25 12:12:17;;;;;;;;;;;;;;;20.04;100.00;100705.84;5024725;28;19914;-66
2023/08/25 12:14:42;;;;;;;;;;;;;;;20.06;100.00;100696.97;5021961;28;19912;-65
2023/08/25 12:17:07;;;;;;;;;;;;;;;20.05;100.00;100697.88;5026041;28;19968;-65
2023/08/25 12:19:33;;;;;;;;;;;;;;;20.05;100.00;100711.09;5026415;28;19992;-65
2023/08/25 12:22:02;;;;;;;;;;;;;;;20.07;100.00;100727.81;5027173;28;19955;-64